Time;durP1;ratioP1;P1;durP2;ratioP2;P2;SDS_P1;SDS_P2;PMS_P1;PMS_P2;Temp;Humidity;BMP_temperature;BMP_pressure;BME280_temperature;BME280_humidity;BME280_pressure;Samples;Min_cycle;Max_cycle;Signal;HPM_P1;HPM_P2
2021/03/01 00:02:13;;;;;;;285.60;60.95;;;3.60;99.90;;;;;;5094597;28;20028;-72
2021/03/01 00:04:38;;;;;;;280.27;58.78;;;3.60;99.90;;;;;;5096119;28;20028;-72
2021/03/01 00:07:04;;;;;;;316.05;65.03;;;3.60;99.90;;;;;;5096356;28;20099;-72
2021/03/01 00:09:29;;;;;;;294.80;64.32;;;3.60;99.90;;;;;;5095155;28;20098;-72
2021/03/01 00:11:55;;;;;;;341.88;64.63;;;3.50;99.90;;;;;;5095580;28;20044;-71
2021/03/01 00:14:20;;;;;;;316.58;60.97;;;3.50;99.90;;;;;;5096235;28;20438;-72
2021/03/01 00:16:46;;;;;;;294.35;63.40;;;3.50;99.90;;;;;;5096151;28;20020;-72
2021/03/01 00:19:12;;;;;;;286.63;61.53;;;3.60;99.90;;;;;;5095583;28;20016;-72
2021/03/01 00:21:37;;;;;;;351.60;68.03;;;3.50;99.90;;;;;;5095755;28;20056;-72
2021/03/01 00:24:03;;;;;;;307.38;61.35;;;3.50;99.90;;;;;;5095718;28;20547;-71
2021/03/01 00:26:29;;;;;;;337.33;63.50;;;3.40;99.90;;;;;;5095710;28;20369;-71
2021/03/01 00:28:54;;;;;;;340.13;62.95;;;3.40;99.90;;;;;;5094427;28;20043;-71
2021/03/01 00:31:20;;;;;;;350.30;62.10;;;3.30;99.90;;;;;;5095773;28;20059;-72
2021/03/01 00:33:45;;;;;;;354.70;64.68;;;3.30;99.90;;;;;;5095528;28;20103;-72
2021/03/01 00:36:11;;;;;;;336.30;63.95;;;3.30;99.90;;;;;;5094279;28;20031;-72
2021/03/01 00:38:36;;;;;;;340.90;66.10;;;3.30;99.90;;;;;;5095706;28;20031;-72
2021/03/01 00:41:02;;;;;;;343.30;65.10;;;3.30;99.90;;;;;;5095372;28;20196;-72
2021/03/01 00:43:30;;;;;;;310.27;62.92;;;3.30;99.90;;;;;;5095340;28;20465;-72
2021/03/01 00:45:56;;;;;;;329.63;61.45;;;3.30;99.90;;;;;;5094450;28;20082;-72
2021/03/01 00:48:21;;;;;;;308.45;63.67;;;3.30;99.90;;;;;;5095577;28;20156;-71
2021/03/01 00:50:47;;;;;;;292.55;60.35;;;3.30;99.90;;;;;;5095491;28;20461;-71
2021/03/01 00:53:21;;;;;;;334.05;65.40;;;3.30;99.90;;;;;;5095341;28;20031;-72
2021/03/01 00:55:46;;;;;;;355.02;67.18;;;3.30;99.90;;;;;;5094228;28;20095;-72
2021/03/01 00:58:11;;;;;;;329.08;67.72;;;3.40;99.90;;;;;;5094175;28;20048;-71
2021/03/01 01:00:37;;;;;;;349.30;69.00;;;3.40;99.90;;;;;;5095262;28;20369;-72
2021/03/01 01:03:03;;;;;;;381.38;72.18;;;3.50;99.90;;;;;;5095285;28;20066;-72
2021/03/01 01:05:29;;;;;;;385.63;68.35;;;3.40;99.90;;;;;;5094683;28;20036;-72
2021/03/01 01:07:54;;;;;;;349.23;67.28;;;3.40;99.90;;;;;;5093406;28;20108;-72
2021/03/01 01:10:20;;;;;;;342.52;64.78;;;3.30;99.90;;;;;;5095120;28;20031;-72
2021/03/01 01:12:45;;;;;;;373.25;65.85;;;3.30;99.90;;;;;;5094352;28;20063;-72
2021/03/01 01:15:11;;;;;;;366.60;64.13;;;3.30;99.90;;;;;;5095035;28;20023;-72
2021/03/01 01:17:37;;;;;;;343.67;61.88;;;3.30;99.90;;;;;;5095033;28;20468;-71
2021/03/01 01:20:12;;;;;;;307.13;58.70;;;3.30;99.90;;;;;;5094918;28;20036;-71
2021/03/01 01:22:38;;;;;;;336.15;58.83;;;3.20;99.90;;;;;;5094910;28;20024;-72
2021/03/01 01:25:06;;;;;;;321.35;60.30;;;3.20;99.90;;;;;;5094605;28;20034;-72
2021/03/01 01:27:31;;;;;;;385.52;66.22;;;3.20;99.90;;;;;;5094587;28;20031;-71
2021/03/01 01:29:57;;;;;;;360.75;66.40;;;3.10;99.90;;;;;;5094756;28;20032;-72
2021/03/01 01:32:22;;;;;;;335.67;65.20;;;3.20;99.90;;;;;;5094383;28;20139;-72
2021/03/01 01:34:48;;;;;;;338.73;65.05;;;3.20;99.90;;;;;;5094695;28;20074;-71
2021/03/01 01:37:13;;;;;;;317.85;64.28;;;3.20;99.90;;;;;;5094084;28;20037;-71
2021/03/01 01:39:39;;;;;;;318.83;63.25;;;3.30;99.90;;;;;;5094592;28;20036;-72
2021/03/01 01:42:04;;;;;;;333.80;61.22;;;3.30;99.90;;;;;;5094125;28;20030;-71
2021/03/01 01:44:30;;;;;;;304.67;60.42;;;3.20;99.90;;;;;;5094534;28;20028;-72
2021/03/01 01:46:55;;;;;;;355.95;59.53;;;3.20;99.90;;;;;;5092655;28;20469;-71
2021/03/01 01:49:21;;;;;;;290.13;57.72;;;3.10;99.90;;;;;;5093218;28;20111;-71
2021/03/01 01:51:46;;;;;;;304.23;54.30;;;3.10;99.90;;;;;;5094033;28;20035;-71
2021/03/01 01:54:12;;;;;;;314.02;55.08;;;3.10;99.90;;;;;;5094307;28;20024;-72
2021/03/01 01:56:40;;;;;;;324.10;59.22;;;3.20;99.90;;;;;;5093098;28;20449;-71
2021/03/01 01:59:07;;;;;;;323.95;56.15;;;3.10;99.90;;;;;;5092808;28;20070;-71
2021/03/01 02:01:33;;;;;;;361.15;61.28;;;3.10;99.90;;;;;;5093064;28;20024;-71
2021/03/01 02:07:15;;;;;;;324.98;58.13;;;3.10;99.90;;;;;;5112258;27;20344;-71
2021/03/01 02:10:06;;;;;;;374.48;62.40;;;3.20;99.90;;;;;;5111307;28;20074;-71
2021/03/01 02:12:46;;;;;;;442.35;64.78;;;3.20;99.90;;;;;;5111932;28;20051;-71
2021/03/01 02:15:22;;;;;;;342.25;59.28;;;3.20;99.90;;;;;;5110371;28;20024;-72
2021/03/01 02:17:48;;;;;;;347.00;54.15;;;3.10;99.90;;;;;;5111562;28;20024;-71
2021/03/01 02:20:14;;;;;;;315.20;54.90;;;2.90;99.90;;;;;;5111441;28;20442;-72
2021/03/01 02:22:40;;;;;;;366.13;57.20;;;2.90;99.90;;;;;;5092887;28;20028;-72
2021/03/01 02:25:11;;;;;;;371.23;59.38;;;2.90;99.90;;;;;;5111567;28;20453;-71
2021/03/01 02:27:48;;;;;;;351.83;59.63;;;3.00;99.90;;;;;;5111073;28;20027;-71
2021/03/01 02:30:21;;;;;;;384.60;60.60;;;3.00;99.90;;;;;;5111283;28;20104;-71
2021/03/01 02:32:48;;;;;;;275.15;57.50;;;3.10;99.90;;;;;;5111277;28;20069;-71
2021/03/01 02:35:14;;;;;;;342.52;60.95;;;3.00;99.90;;;;;;5110292;28;20448;-71
2021/03/01 02:37:42;;;;;;;409.80;62.72;;;3.10;99.90;;;;;;5111450;28;20040;-72
2021/03/01 02:40:09;;;;;;;256.10;51.05;;;3.10;99.90;;;;;;5109921;28;20031;-71
2021/03/01 02:42:37;;;;;;;319.63;52.33;;;3.10;99.90;;;;;;5110756;28;20032;-71
2021/03/01 02:45:04;;;;;;;302.73;50.50;;;3.00;99.90;;;;;;5111199;28;20016;-71
2021/03/01 02:47:31;;;;;;;270.40;48.15;;;3.00;99.90;;;;;;5111224;28;20030;-71
2021/03/01 02:49:59;;;;;;;310.00;49.63;;;3.00;99.90;;;;;;5109759;28;20012;-71
2021/03/01 02:52:25;;;;;;;299.65;48.55;;;2.90;99.90;;;;;;5110911;28;20016;-72
2021/03/01 02:54:52;;;;;;;356.20;53.42;;;2.90;99.90;;;;;;5110557;28;20047;-71
2021/03/01 02:57:21;;;;;;;285.17;48.17;;;2.90;99.90;;;;;;5110796;28;20016;-71
2021/03/01 02:59:49;;;;;;;288.38;50.38;;;2.90;99.90;;;;;;5111019;28;20106;-71
2021/03/01 03:02:16;;;;;;;315.85;52.00;;;2.90;99.90;;;;;;5110963;28;20020;-72
2021/03/01 03:04:41;;;;;;;378.02;54.25;;;2.90;99.90;;;;;;5109118;28;20048;-71
2021/03/01 03:07:08;;;;;;;349.48;54.28;;;2.90;99.90;;;;;;5110869;28;20073;-72
2021/03/01 03:09:35;;;;;;;358.25;58.78;;;2.90;99.90;;;;;;5109665;28;20031;-72
2021/03/01 03:12:01;;;;;;;363.58;58.75;;;3.00;99.90;;;;;;5110201;28;20019;-71
2021/03/01 03:14:28;;;;;;;315.90;54.03;;;3.00;99.90;;;;;;5109290;28;20024;-71
2021/03/01 03:16:58;;;;;;;330.70;54.10;;;2.90;99.90;;;;;;5084545;28;20465;-71
2021/03/01 03:19:24;;;;;;;338.33;56.80;;;2.90;99.90;;;;;;5095807;28;20031;-71
2021/03/01 03:21:50;;;;;;;329.27;54.50;;;2.90;99.90;;;;;;5095803;28;20024;-72
2021/03/01 03:24:16;;;;;;;328.45;53.70;;;3.00;99.90;;;;;;5096838;28;20047;-71
2021/03/01 03:26:41;;;;;;;264.02;50.80;;;2.90;99.90;;;;;;5095339;28;20028;-71
2021/03/01 03:29:08;;;;;;;292.20;49.03;;;3.00;99.90;;;;;;5095690;28;20028;-71
2021/03/01 03:31:33;;;;;;;300.67;48.15;;;2.90;99.90;;;;;;5096829;28;20043;-71
2021/03/01 03:34:00;;;;;;;281.48;47.38;;;2.80;99.90;;;;;;5096752;28;20060;-71
2021/03/01 03:36:30;;;;;;;243.90;47.88;;;2.80;99.90;;;;;;5095556;28;20024;-71
2021/03/01 03:39:01;;;;;;;275.00;46.78;;;2.80;99.90;;;;;;5096691;28;20024;-71
2021/03/01 03:41:29;;;;;;;251.90;46.22;;;2.80;99.90;;;;;;5096111;28;20111;-71
2021/03/01 03:43:57;;;;;;;255.57;46.75;;;2.70;99.90;;;;;;5096587;28;20024;-71
2021/03/01 03:46:26;;;;;;;263.48;46.97;;;2.70;99.90;;;;;;5094604;28;20386;-71
2021/03/01 03:48:53;;;;;;;209.82;42.90;;;2.70;99.90;;;;;;5095495;28;20043;-71
2021/03/01 03:51:20;;;;;;;242.93;46.28;;;2.70;99.90;;;;;;5096184;28;20020;-71
2021/03/01 03:53:49;;;;;;;210.35;42.78;;;2.80;99.90;;;;;;5096144;28;20023;-71
2021/03/01 03:56:20;;;;;;;255.15;47.97;;;2.70;99.90;;;;;;5096390;28;20424;-71
2021/03/01 03:58:48;;;;;;;249.18;47.88;;;2.70;99.90;;;;;;5095174;28;20024;-71
2021/03/01 04:01:16;;;;;;;269.05;45.88;;;2.80;99.90;;;;;;5095728;28;20503;-71
2021/03/01 04:03:44;;;;;;;250.45;44.97;;;2.80;99.90;;;;;;5096181;28;20028;-71
2021/03/01 04:06:13;;;;;;;281.08;48.05;;;2.70;99.90;;;;;;5095468;28;20496;-71
2021/03/01 04:08:40;;;;;;;264.60;46.33;;;2.70;99.90;;;;;;5077694;28;20024;-71
2021/03/01 04:11:07;;;;;;;233.20;48.90;;;2.70;99.90;;;;;;5095970;28;20016;-72
2021/03/01 04:13:34;;;;;;;258.60;48.05;;;2.80;99.90;;;;;;5095721;28;20020;-72
2021/03/01 04:16:00;;;;;;;281.88;49.67;;;2.70;99.90;;;;;;5094155;28;20024;-71
2021/03/01 04:18:32;;;;;;;304.48;51.00;;;2.80;99.90;;;;;;5095980;28;20423;-71
2021/03/01 04:21:03;;;;;;;240.65;47.60;;;2.80;99.90;;;;;;5094103;28;20028;-71
2021/03/01 04:23:31;;;;;;;237.52;46.58;;;2.90;99.90;;;;;;5095824;28;20055;-71
2021/03/01 04:25:59;;;;;;;238.98;48.75;;;2.80;99.90;;;;;;5095450;28;20031;-71
2021/03/01 04:28:26;;;;;;;221.57;47.55;;;2.70;99.90;;;;;;5094198;28;20024;-71
2021/03/01 04:30:52;;;;;;;285.73;49.63;;;2.80;99.90;;;;;;5093832;28;20024;-72
2021/03/01 04:33:19;;;;;;;308.73;52.55;;;2.80;99.90;;;;;;5076947;28;20080;-71
2021/03/01 04:35:48;;;;;;;285.83;56.75;;;2.80;99.90;;;;;;5095611;28;20043;-71
2021/03/01 04:38:13;;;;;;;296.35;54.78;;;2.80;99.90;;;;;;5094964;28;20377;-72
2021/03/01 04:40:39;;;;;;;251.60;52.38;;;2.80;99.90;;;;;;5095225;28;20061;-71
2021/03/01 04:43:10;;;;;;;261.25;52.97;;;2.80;99.90;;;;;;5094864;28;20032;-71
2021/03/01 04:45:38;;;;;;;305.77;55.80;;;2.70;99.90;;;;;;5093484;28;20487;-71
2021/03/01 04:48:05;;;;;;;311.25;59.17;;;2.70;99.90;;;;;;5095311;28;20024;-72
2021/03/01 04:50:31;;;;;;;309.42;55.40;;;2.70;99.90;;;;;;5095046;28;20373;-72
2021/03/01 04:52:57;;;;;;;309.30;57.70;;;2.60;99.90;;;;;;5095261;28;20044;-71
2021/03/01 04:55:23;;;;;;;308.63;58.63;;;2.70;99.90;;;;;;5095189;28;20409;-71
2021/03/01 04:57:51;;;;;;;307.38;60.53;;;2.70;99.90;;;;;;5094899;28;20554;-71
2021/03/01 05:00:18;;;;;;;318.10;61.22;;;2.70;99.90;;;;;;5095113;28;20048;-71
2021/03/01 05:02:44;;;;;;;329.33;59.42;;;2.70;99.90;;;;;;5094728;28;20024;-71
2021/03/01 05:05:10;;;;;;;320.75;60.03;;;2.70;99.90;;;;;;5094402;28;20047;-71
2021/03/01 05:07:37;;;;;;;341.27;60.88;;;2.80;99.90;;;;;;5094939;28;20024;-71
2021/03/01 05:10:05;;;;;;;338.38;62.72;;;2.70;99.90;;;;;;5094955;28;20044;-71
2021/03/01 05:12:31;;;;;;;358.80;66.40;;;2.70;99.90;;;;;;5094892;28;20059;-71
2021/03/01 05:14:56;;;;;;;372.13;63.08;;;2.70;99.90;;;;;;5094527;28;20020;-72
2021/03/01 05:17:22;;;;;;;339.98;65.07;;;2.70;99.90;;;;;;5094777;28;20035;-72
2021/03/01 05:19:47;;;;;;;284.55;54.78;;;2.70;99.90;;;;;;5094191;28;20111;-71
2021/03/01 05:22:13;;;;;;;272.75;51.45;;;2.70;99.90;;;;;;5094423;28;20032;-71
2021/03/01 05:24:38;;;;;;;262.30;51.08;;;2.70;99.90;;;;;;5093319;28;20405;-72
2021/03/01 05:27:04;;;;;;;280.27;51.72;;;2.70;99.90;;;;;;5094057;28;20028;-72
2021/03/01 05:29:30;;;;;;;264.02;50.25;;;2.70;99.90;;;;;;5094583;28;20464;-71
2021/03/01 05:31:55;;;;;;;271.67;51.78;;;2.80;99.90;;;;;;5094556;28;20012;-72
2021/03/01 05:34:22;;;;;;;251.18;50.42;;;2.80;99.90;;;;;;5093091;28;20028;-72
2021/03/01 05:36:47;;;;;;;178.77;43.53;;;2.70;99.90;;;;;;5094463;28;20019;-71
2021/03/01 05:39:13;;;;;;;195.68;43.97;;;2.70;99.90;;;;;;5094161;28;20020;-72
2021/03/01 05:41:40;;;;;;;213.98;44.25;;;2.70;99.90;;;;;;5093866;28;20028;-71
2021/03/01 05:44:07;;;;;;;201.73;44.65;;;2.60;99.90;;;;;;5094082;28;20020;-71
2021/03/01 05:46:35;;;;;;;269.30;47.88;;;2.70;99.90;;;;;;5094050;28;20024;-71
2021/03/01 05:49:03;;;;;;;242.50;46.25;;;2.60;99.90;;;;;;5094086;28;20108;-71
2021/03/01 05:51:29;;;;;;;212.75;47.05;;;2.60;99.90;;;;;;5094052;28;20020;-72
2021/03/01 05:53:59;;;;;;;240.27;47.63;;;2.70;99.90;;;;;;5094296;28;20028;-71
2021/03/01 05:56:25;;;;;;;255.55;48.15;;;2.60;99.90;;;;;;5076104;28;20056;-71
2021/03/01 05:58:51;;;;;;;262.70;45.83;;;2.60;99.90;;;;;;5094189;28;20024;-71
2021/03/01 06:01:17;;;;;;;233.95;47.63;;;2.70;99.90;;;;;;5094180;28;20028;-71
2021/03/01 06:03:43;;;;;;;244.50;49.65;;;2.70;99.90;;;;;;5094199;28;20020;-71
2021/03/01 06:06:10;;;;;;;226.70;49.67;;;2.70;99.90;;;;;;5092480;28;20048;-72
2021/03/01 06:08:36;;;;;;;250.60;46.58;;;2.80;99.90;;;;;;5094111;28;20077;-72
2021/03/01 06:11:05;;;;;;;212.95;43.72;;;2.80;99.90;;;;;;5092931;28;20098;-72
2021/03/01 06:13:31;;;;;;;204.32;42.03;;;2.70;99.90;;;;;;5093532;28;20036;-71
2021/03/01 06:15:58;;;;;;;215.95;43.50;;;2.70;99.90;;;;;;5094085;28;20413;-71
2021/03/01 06:18:25;;;;;;;198.63;43.90;;;2.60;99.90;;;;;;5093981;28;20020;-71
2021/03/01 06:20:52;;;;;;;236.95;46.33;;;2.60;99.90;;;;;;5092207;28;20092;-71
2021/03/01 06:23:35;;;;;;;233.23;43.00;;;2.60;99.90;;;;;;5094001;28;20032;-72
2021/03/01 06:26:29;;;;;;;223.85;42.75;;;2.60;99.90;;;;;;5093598;28;20017;-71
2021/03/01 06:29:04;;;;;;;;;;;2.60;99.90;;;;;;5093779;28;20077;-71
2021/03/01 06:31:47;;;;;;;220.48;42.53;;;2.60;99.90;;;;;;5092436;28;20337;-71
2021/03/01 06:34:31;;;;;;;216.57;44.05;;;2.70;99.90;;;;;;5092432;28;20070;-71
2021/03/01 06:37:16;;;;;;;227.90;46.92;;;2.70;99.90;;;;;;5093576;28;20377;-71
2021/03/01 06:39:44;;;;;;;226.75;44.30;;;2.70;99.90;;;;;;5093835;28;20032;-71
2021/03/01 06:42:30;;;;;;;242.30;46.30;;;2.70;99.90;;;;;;5093109;28;20400;-71
2021/03/01 06:47:54;;;;;;;259.17;47.00;;;2.70;99.90;;;;;;5112247;27;20347;-71
2021/03/01 06:50:35;;;;;;;268.40;48.10;;;2.80;99.90;;;;;;5111895;28;20055;-71
2021/03/01 06:56:14;;;;;;;265.77;50.70;;;2.80;99.90;;;;;;5111995;27;20696;-72
2021/03/01 06:58:41;;;;;;;273.17;50.15;;;2.80;99.90;;;;;;5111796;28;20032;-72
2021/03/01 07:01:22;;;;;;;236.13;47.53;;;2.80;99.90;;;;;;5111379;28;20016;-72
2021/03/01 07:03:50;;;;;;;245.57;49.08;;;2.80;99.90;;;;;;5111319;28;20020;-72
2021/03/01 07:06:17;;;;;;;258.00;42.97;;;2.80;99.90;;;;;;5110230;28;20073;-72
2021/03/01 07:08:46;;;;;;;244.48;45.22;;;2.70;99.90;;;;;;5111132;28;20036;-71
2021/03/01 07:11:36;;;;;;;237.45;43.33;;;2.70;99.90;;;;;;5102954;28;20382;-70
2021/03/01 07:14:10;;;;;;;204.43;41.28;;;2.70;99.90;;;;;;5094868;28;20152;-71
2021/03/01 07:16:42;;;;;;;218.32;42.88;;;2.70;99.90;;;;;;5103837;28;20111;-71
2021/03/01 07:19:12;;;;;;;221.13;43.07;;;2.70;99.90;;;;;;5096713;28;20019;-71
2021/03/01 07:21:41;;;;;;;205.40;39.45;;;2.80;99.90;;;;;;5093652;28;20274;-71
2021/03/01 07:24:07;;;;;;;212.13;39.92;;;2.80;99.90;;;;;;5095649;28;20022;-71
2021/03/01 07:26:34;;;;;;;174.90;37.42;;;2.80;99.90;;;;;;5111256;28;20024;-70
2021/03/01 07:29:09;;;;;;;187.95;38.47;;;2.80;99.90;;;;;;5106679;28;20024;-71
2021/03/01 07:31:36;;;;;;;202.75;38.70;;;2.90;99.90;;;;;;5097769;28;20020;-70
2021/03/01 07:34:04;;;;;;;198.25;39.45;;;2.80;99.90;;;;;;5108837;28;20024;-70
2021/03/01 07:36:31;;;;;;;215.73;40.38;;;2.80;99.90;;;;;;5090301;28;20027;-72
2021/03/01 07:38:58;;;;;;;161.35;34.75;;;2.70;99.90;;;;;;5105538;28;20056;-71
2021/03/01 07:41:25;;;;;;;169.57;34.72;;;2.80;99.90;;;;;;5107573;28;20028;-72
2021/03/01 07:43:51;;;;;;;154.80;35.97;;;2.80;99.90;;;;;;5098348;28;20028;-72
2021/03/01 07:46:17;;;;;;;187.25;37.40;;;2.80;99.90;;;;;;5090474;28;20376;-70
2021/03/01 07:48:43;;;;;;;210.15;38.85;;;2.80;99.90;;;;;;5108960;28;20587;-69
2021/03/01 07:51:11;;;;;;;209.93;38.92;;;2.70;99.90;;;;;;5109515;28;20039;-72
2021/03/01 07:53:53;;;;;;;172.02;36.50;;;2.80;99.90;;;;;;5104355;28;20190;-71
2021/03/01 07:59:05;;;;;;;161.32;35.50;;;2.80;99.90;;;;;;5095638;27;20926;-70
2021/03/01 08:01:30;;;;;;;158.70;36.05;;;2.80;99.90;;;;;;5107231;28;20027;-70
2021/03/01 08:03:57;;;;;;;161.63;36.25;;;2.80;99.90;;;;;;5093458;28;20024;-70
2021/03/01 08:06:23;;;;;;;149.93;35.85;;;2.80;99.90;;;;;;5110324;28;20035;-71
2021/03/01 08:08:51;;;;;;;154.02;36.35;;;2.90;99.90;;;;;;5110484;28;20431;-70
2021/03/01 08:14:54;;;;;;;165.55;31.50;;;2.90;99.90;;;;;;5110665;27;20400;-70
2021/03/01 08:20:25;;;;;;;152.07;35.03;;;2.80;99.90;;;;;;5107027;27;20361;-74
2021/03/01 08:33:46;;;;;;;260.60;56.03;;;3.00;99.90;;;;;;5068761;28;20398;-72
2021/03/01 08:36:17;;;;;;;219.63;40.40;;;3.00;99.90;;;;;;5056351;28;20018;-71
2021/03/01 08:38:49;;;;;;;240.40;36.92;;;2.90;99.90;;;;;;5045632;28;20029;-72
2021/03/01 08:41:17;;;;;;;193.60;38.03;;;2.90;99.90;;;;;;5057327;28;20033;-72
2021/03/01 08:43:45;;;;;;;193.57;38.40;;;2.90;99.90;;;;;;5060903;28;20024;-72
2021/03/01 08:46:19;;;;;;;200.90;38.67;;;3.00;99.90;;;;;;5059336;28;20048;-73
2021/03/01 08:48:47;;;;;;;219.70;40.28;;;3.00;99.90;;;;;;5050145;28;20025;-71
2021/03/01 08:51:14;;;;;;;197.20;37.05;;;2.90;99.90;;;;;;5050900;28;20032;-70
2021/03/01 08:53:40;;;;;;;184.90;33.50;;;3.00;99.90;;;;;;5069879;28;20056;-70
2021/03/01 08:56:19;;;;;;;171.38;34.50;;;3.00;99.90;;;;;;5056917;28;20378;-72
2021/03/01 08:58:45;;;;;;;126.63;30.77;;;3.10;99.90;;;;;;5052233;28;20113;-71
2021/03/01 09:01:11;;;;;;;142.07;32.65;;;3.00;99.90;;;;;;5054924;28;20108;-73
2021/03/01 09:03:38;;;;;;;144.27;33.45;;;3.00;99.90;;;;;;5050529;28;20490;-73
2021/03/01 09:06:20;;;;;;;121.63;30.35;;;3.10;99.90;;;;;;5054693;28;20512;-72
2021/03/01 09:08:48;;;;;;;145.32;33.70;;;3.10;99.90;;;;;;5050020;28;20041;-74
2021/03/01 09:13:54;;;;;;;207.40;38.60;;;3.10;99.90;;;;;;5110317;27;20177;-72
2021/03/01 09:16:24;;;;;;;168.20;36.83;;;3.20;99.90;;;;;;5104938;28;20086;-71
2021/03/01 09:18:51;;;;;;;144.98;35.00;;;3.30;99.90;;;;;;5099317;28;20024;-71
2021/03/01 09:21:19;;;;;;;107.60;31.08;;;3.40;99.90;;;;;;5110736;28;20088;-70
2021/03/01 09:23:50;;;;;;;93.00;28.17;;;3.30;99.90;;;;;;5093286;28;20047;-72
2021/03/01 09:28:59;;;;;;;101.72;29.52;;;3.30;99.90;;;;;;5111396;27;20344;-72
2021/03/01 09:31:25;;;;;;;99.85;28.52;;;3.40;99.90;;;;;;5111009;28;20107;-71
2021/03/01 09:33:52;;;;;;;110.50;30.33;;;3.40;99.90;;;;;;5110355;28;20035;-73
2021/03/01 09:36:18;;;;;;;117.63;30.88;;;3.40;99.90;;;;;;5090857;28;20048;-70
2021/03/01 09:38:52;;;;;;;110.20;31.65;;;3.40;99.90;;;;;;5090694;28;20024;-70
2021/03/01 09:41:19;;;;;;;97.25;30.25;;;3.40;99.90;;;;;;5090525;28;20028;-70
2021/03/01 09:43:49;;;;;;;78.47;27.35;;;3.50;99.90;;;;;;5090378;28;20129;-71
2021/03/01 09:46:15;;;;;;;73.35;25.00;;;3.50;99.90;;;;;;5090227;28;20103;-71
2021/03/01 09:48:45;;;;;;;90.82;29.55;;;3.50;99.90;;;;;;5105830;28;20020;-71
2021/03/01 09:51:11;;;;;;;97.75;28.55;;;3.60;99.90;;;;;;5109892;28;20469;-71
2021/03/01 09:53:38;;;;;;;131.10;34.47;;;3.60;99.90;;;;;;5108695;28;20097;-71
2021/03/01 09:56:04;;;;;;;92.10;31.48;;;3.70;99.90;;;;;;5110129;28;20037;-72
2021/03/01 09:58:32;;;;;;;92.38;30.35;;;3.90;99.90;;;;;;5109534;28;20016;-71
2021/03/01 10:01:15;;;;;;;79.50;27.65;;;3.90;99.90;;;;;;5110035;28;20035;-71
2021/03/01 10:03:44;;;;;;;91.10;28.65;;;3.80;99.90;;;;;;5109096;28;20032;-72
2021/03/01 10:06:11;;;;;;;119.15;32.72;;;3.60;99.90;;;;;;5109010;28;20036;-74
2021/03/01 10:08:39;;;;;;;108.32;30.75;;;3.60;99.90;;;;;;5110230;28;20027;-71
2021/03/01 10:11:18;;;;;;;90.53;29.83;;;3.60;99.90;;;;;;5108420;28;20383;-72
2021/03/01 10:13:44;;;;;;;84.38;27.13;;;3.60;99.90;;;;;;5089451;28;20123;-72
2021/03/01 10:16:10;;;;;;;89.95;28.98;;;3.60;99.90;;;;;;5090381;28;20091;-73
2021/03/01 10:18:36;;;;;;;97.47;32.97;;;3.60;99.90;;;;;;5110017;28;20097;-72
2021/03/01 10:21:04;;;;;;;91.57;31.70;;;3.70;99.90;;;;;;5109854;28;20028;-72
2021/03/01 10:23:35;;;;;;;113.82;34.50;;;3.70;99.90;;;;;;5108264;28;20027;-72
2021/03/01 10:26:15;;;;;;;66.10;25.85;;;3.90;99.90;;;;;;5109379;28;20092;-72
2021/03/01 10:28:53;;;;;;;58.95;23.38;;;3.80;99.90;;;;;;5107825;28;20044;-72
2021/03/01 10:31:21;;;;;;;54.88;23.90;;;3.70;99.90;;;;;;5109412;28;20052;-74
2021/03/01 10:39:22;;;;;;;81.50;27.80;;;3.80;99.90;;;;;;5111043;27;20105;-72
2021/03/01 10:41:50;;;;;;;80.72;29.58;;;3.80;99.90;;;;;;5110856;28;20073;-72
2021/03/01 10:44:17;;;;;;;105.32;34.05;;;3.90;99.90;;;;;;5110903;28;20512;-71
2021/03/01 10:46:46;;;;;;;116.32;36.22;;;3.90;99.90;;;;;;5110714;28;20032;-71
2021/03/01 10:49:17;;;;;;;101.72;32.72;;;3.90;99.90;;;;;;5110449;28;20030;-71
2021/03/01 10:51:43;;;;;;;54.90;23.38;;;4.00;99.90;;;;;;5111474;28;20058;-71
2021/03/01 10:54:09;;;;;;;52.53;21.90;;;4.00;99.90;;;;;;5110068;28;20051;-73
2021/03/01 10:56:35;;;;;;;59.72;23.65;;;4.00;99.90;;;;;;5110672;28;20042;-72
2021/03/01 10:59:00;;;;;;;60.22;24.73;;;3.90;99.90;;;;;;5110351;28;20512;-71
2021/03/01 11:01:43;;;;;;;83.10;28.27;;;3.80;99.90;;;;;;5109774;28;20067;-72
2021/03/01 11:04:10;;;;;;;70.60;25.98;;;3.80;99.90;;;;;;5109509;28;20016;-72
2021/03/01 11:06:36;;;;;;;73.28;26.98;;;3.80;99.90;;;;;;5108784;28;20032;-73
2021/03/01 11:09:04;;;;;;;90.43;31.27;;;3.90;99.90;;;;;;5108727;28;20020;-73
2021/03/01 11:11:29;;;;;;;85.32;30.80;;;3.90;99.90;;;;;;5110455;28;20032;-72
2021/03/01 11:13:55;;;;;;;83.93;29.33;;;4.00;99.90;;;;;;5109564;28;20027;-72
2021/03/01 11:16:21;;;;;;;76.15;28.95;;;3.90;99.90;;;;;;5109540;28;20032;-71
2021/03/01 11:18:47;;;;;;;54.58;22.77;;;4.10;99.90;;;;;;5109043;28;20473;-71
2021/03/01 11:21:12;;;;;;;33.20;15.52;;;4.10;99.90;;;;;;5109840;28;20119;-71
2021/03/01 11:23:38;;;;;;;37.95;17.73;;;4.00;99.90;;;;;;5110029;28;20031;-71
2021/03/01 11:26:04;;;;;;;32.80;15.75;;;4.10;99.90;;;;;;5109926;28;20055;-71
2021/03/01 11:28:30;;;;;;;33.78;16.50;;;4.20;99.90;;;;;;5109904;28;20381;-71
2021/03/01 11:30:55;;;;;;;38.55;17.17;;;4.20;99.90;;;;;;5110151;28;20036;-71
2021/03/01 11:33:22;;;;;;;37.13;17.38;;;4.30;99.90;;;;;;5108214;28;20028;-71
2021/03/01 11:35:50;;;;;;;43.83;18.52;;;4.50;99.90;;;;;;5109615;28;20032;-71
2021/03/01 11:38:16;;;;;;;89.20;31.02;;;4.70;99.90;;;;;;5107914;28;20093;-70
2021/03/01 11:40:42;;;;;;;79.00;29.02;;;4.70;99.90;;;;;;5109651;28;20475;-71
2021/03/01 11:43:07;;;;;;;53.67;24.13;;;4.60;99.90;;;;;;5109526;28;20020;-71
2021/03/01 11:45:33;;;;;;;60.72;23.75;;;4.40;99.90;;;;;;5109839;28;20592;-71
2021/03/01 11:47:59;;;;;;;48.70;22.05;;;4.30;99.90;;;;;;5109595;28;20024;-72
2021/03/01 11:50:26;;;;;;;53.30;21.58;;;4.20;99.90;;;;;;5097134;28;20032;-71
2021/03/01 11:52:51;;;;;;;56.40;23.17;;;4.30;99.90;;;;;;5095557;28;20016;-72
2021/03/01 11:55:17;;;;;;;59.80;26.25;;;4.50;99.90;;;;;;5094799;28;20487;-71
2021/03/01 11:57:42;;;;;;;58.92;25.40;;;4.60;99.90;;;;;;5094445;28;20028;-71
2021/03/01 12:00:09;;;;;;;64.07;25.67;;;4.70;99.90;;;;;;5095828;28;20020;-72
2021/03/01 12:02:34;;;;;;;58.08;24.20;;;4.60;99.90;;;;;;5093752;28;20052;-71
2021/03/01 12:05:00;;;;;;;72.35;27.52;;;4.80;99.90;;;;;;5093875;28;20100;-72
2021/03/01 12:07:26;;;;;;;80.70;28.13;;;4.70;99.90;;;;;;5095670;28;20028;-72
2021/03/01 12:09:52;;;;;;;80.40;31.35;;;4.80;99.90;;;;;;5095512;28;20052;-71
2021/03/01 12:12:17;;;;;;;97.00;33.38;;;4.70;99.90;;;;;;5095319;28;20486;-72
2021/03/01 12:14:43;;;;;;;94.55;34.03;;;4.60;99.90;;;;;;5093462;28;20039;-71
2021/03/01 12:17:08;;;;;;;112.50;37.80;;;4.60;99.90;;;;;;5075800;28;20086;-71
2021/03/01 12:19:34;;;;;;;96.82;36.35;;;4.70;99.90;;;;;;5090040;28;20366;-71
2021/03/01 12:21:59;;;;;;;99.70;38.47;;;4.80;99.90;;;;;;5094781;28;20039;-72
2021/03/01 12:24:25;;;;;;;101.78;37.05;;;4.90;99.90;;;;;;5094296;28;20017;-71
2021/03/01 12:26:51;;;;;;;101.57;36.22;;;4.90;99.90;;;;;;5094877;28;20061;-71
2021/03/01 12:29:16;;;;;;;88.68;35.53;;;5.00;99.90;;;;;;5095576;28;20064;-71
2021/03/01 12:31:42;;;;;;;90.63;32.78;;;5.00;99.90;;;;;;5094684;28;20056;-71
2021/03/01 12:34:08;;;;;;;86.22;32.72;;;5.00;99.90;;;;;;5094936;28;20439;-71
2021/03/01 12:36:33;;;;;;;80.75;33.58;;;5.20;99.90;;;;;;5095245;28;20407;-72
2021/03/01 12:38:59;;;;;;;80.22;33.25;;;5.30;99.90;;;;;;5093602;28;20047;-72
2021/03/01 12:41:24;;;;;;;87.78;35.63;;;5.30;99.90;;;;;;5094767;28;20016;-72
2021/03/01 12:43:50;;;;;;;88.22;34.03;;;5.40;99.90;;;;;;5095346;28;20020;-72
2021/03/01 12:46:15;;;;;;;86.00;32.47;;;5.30;99.90;;;;;;5094700;28;20024;-72
2021/03/01 12:48:41;;;;;;;109.28;41.78;;;5.30;99.90;;;;;;5095044;28;20077;-73
2021/03/01 12:51:07;;;;;;;111.93;42.30;;;5.50;99.90;;;;;;5094676;28;20461;-73
2021/03/01 12:53:33;;;;;;;99.43;37.10;;;5.60;99.90;;;;;;5094305;28;20031;-71
2021/03/01 12:55:59;;;;;;;103.53;39.17;;;5.40;99.90;;;;;;5093294;28;20389;-71
2021/03/01 12:58:24;;;;;;;86.40;35.88;;;5.40;99.90;;;;;;5073164;28;20024;-71
2021/03/01 13:00:50;;;;;;;49.70;23.92;;;5.70;99.90;;;;;;5073130;28;20016;-71
2021/03/01 13:03:16;;;;;;;63.13;26.75;;;5.40;99.90;;;;;;5093488;28;20027;-72
2021/03/01 13:05:41;;;;;;;70.82;29.88;;;5.40;99.90;;;;;;5094291;28;20024;-71
2021/03/01 13:08:09;;;;;;;73.60;31.08;;;5.30;99.90;;;;;;5094382;28;20115;-72
2021/03/01 13:10:34;;;;;;;70.65;30.42;;;5.60;99.90;;;;;;5094724;28;20024;-72
2021/03/01 13:13:00;;;;;;;74.75;31.92;;;5.40;99.90;;;;;;5093992;28;20370;-73
2021/03/01 13:15:26;;;;;;;86.22;33.88;;;5.40;99.90;;;;;;5093010;28;20097;-72